createdAt,value
2017-11-29T00:01:02.848Z,99311
2017-11-29T00:03:32.764Z,99312
2017-11-29T00:06:02.743Z,99313
2017-11-29T00:08:32.645Z,99318
2017-11-29T00:11:02.547Z,99314
2017-11-29T00:13:32.563Z,99314
2017-11-29T00:16:02.616Z,99318
2017-11-29T00:18:32.804Z,99321
2017-11-29T00:21:02.756Z,99314
2017-11-29T00:23:32.710Z,99311
2017-11-29T00:26:02.626Z,99320
2017-11-29T00:28:32.654Z,99326
2017-11-29T00:31:02.576Z,99321
2017-11-29T00:33:32.482Z,99329
2017-11-29T00:36:02.411Z,99328
2017-11-29T00:38:32.368Z,99330
2017-11-29T00:41:02.341Z,99325
2017-11-29T00:43:32.246Z,99331
2017-11-29T00:46:02.181Z,99322
2017-11-29T00:48:32.142Z,99326
2017-11-29T00:51:02.059Z,99326
2017-11-29T00:53:31.991Z,99334
2017-11-29T00:56:01.912Z,99331
2017-11-29T00:58:31.811Z,99338
2017-11-29T01:01:01.719Z,99331
2017-11-29T01:03:31.649Z,99343
2017-11-29T01:06:01.567Z,99336
2017-11-29T01:08:31.458Z,99343
2017-11-29T01:11:01.371Z,99343
2017-11-29T01:13:31.307Z,99346
2017-11-29T01:16:01.274Z,99345
2017-11-29T01:18:31.243Z,99266
2017-11-29T01:21:01.172Z,99344
2017-11-29T01:23:31.109Z,99342
2017-11-29T01:26:01.008Z,99340
2017-11-29T01:28:30.919Z,99344
2017-11-29T01:31:00.813Z,99341
2017-11-29T01:33:30.820Z,99345
2017-11-29T01:36:00.725Z,99350
2017-11-29T01:38:30.654Z,99356
2017-11-29T01:41:00.650Z,99345
2017-11-29T01:43:30.624Z,99355
2017-11-29T01:46:00.593Z,99351
2017-11-29T01:48:30.494Z,99342
2017-11-29T01:51:00.408Z,99354
2017-11-29T01:53:30.315Z,99357
2017-11-29T01:58:36.625Z,99363
2017-11-29T02:01:06.615Z,99356
2017-11-29T02:03:36.507Z,99364
2017-11-29T02:06:18.031Z,99363
2017-11-29T02:08:47.933Z,99368
2017-11-29T02:11:17.865Z,99370
2017-11-29T02:13:47.981Z,99361
2017-11-29T02:16:17.916Z,99366
2017-11-29T02:18:47.812Z,99359
2017-11-29T02:21:17.726Z,99358
2017-11-29T02:23:47.603Z,99358
2017-11-29T02:26:17.504Z,99354
2017-11-29T02:28:47.405Z,99363
2017-11-29T02:31:17.281Z,99360
2017-11-29T02:33:47.262Z,99365
2017-11-29T02:36:17.174Z,99361
2017-11-29T02:38:47.116Z,99357
2017-11-29T02:41:28.809Z,99355
2017-11-29T02:43:58.861Z,99358
2017-11-29T02:46:28.770Z,99362
2017-11-29T02:48:58.671Z,99358
2017-11-29T02:51:28.547Z,99354
2017-11-29T02:53:58.437Z,99349
2017-11-29T02:56:28.327Z,99356
2017-11-29T02:58:58.219Z,99354
2017-11-29T03:01:28.107Z,99360
2017-11-29T03:03:58.002Z,99364
2017-11-29T03:06:27.923Z,99370
2017-11-29T03:08:57.806Z,99366
2017-11-29T03:11:27.728Z,99367
2017-11-29T03:13:57.668Z,99371
2017-11-29T03:16:27.582Z,99369
2017-11-29T03:18:57.467Z,99371
2017-11-29T03:21:27.358Z,99361
2017-11-29T03:23:57.274Z,99361
2017-11-29T03:26:27.194Z,99363
2017-11-29T03:28:57.111Z,99363
2017-11-29T03:31:27.021Z,99363
2017-11-29T03:33:56.963Z,99367
2017-11-29T03:36:26.886Z,99371
2017-11-29T03:38:56.808Z,99371
2017-11-29T03:41:26.699Z,99370
2017-11-29T03:43:56.702Z,99372
2017-11-29T03:46:26.607Z,99375
2017-11-29T03:48:56.497Z,99372
2017-11-29T03:51:26.732Z,99375
2017-11-29T03:53:56.643Z,99375
2017-11-29T03:56:26.656Z,99375
2017-11-29T03:58:56.573Z,99372
2017-11-29T04:01:26.556Z,99382
2017-11-29T04:03:56.469Z,99379
2017-11-29T04:06:26.396Z,99372
2017-11-29T04:08:56.296Z,99383
2017-11-29T04:11:27.020Z,99381
2017-11-29T04:13:56.927Z,99381
2017-11-29T04:16:26.835Z,99384
2017-11-29T04:18:56.734Z,99386
2017-11-29T04:21:26.721Z,99387
2017-11-29T04:23:56.667Z,99390
2017-11-29T04:26:26.566Z,99384
2017-11-29T04:28:56.484Z,99381
2017-11-29T04:31:26.404Z,99380
2017-11-29T04:33:56.312Z,99379
2017-11-29T04:36:26.235Z,99384
2017-11-29T04:38:56.147Z,99378
2017-11-29T04:41:26.092Z,99379
2017-11-29T04:43:56.001Z,99375
2017-11-29T04:46:26.008Z,99388
2017-11-29T04:48:56.508Z,99381
2017-11-29T04:51:26.401Z,99391
2017-11-29T04:53:56.317Z,99360
2017-11-29T04:56:26.232Z,99397
2017-11-29T04:58:56.208Z,99391
2017-11-29T05:01:26.222Z,99391
2017-11-29T05:03:56.144Z,99388
2017-11-29T05:06:26.043Z,99391
2017-11-29T05:08:55.950Z,99392
2017-11-29T05:11:25.847Z,99401
2017-11-29T05:13:55.837Z,99399
2017-11-29T05:16:25.815Z,99393
2017-11-29T05:18:55.728Z,99387
2017-11-29T05:21:25.637Z,99394
2017-11-29T05:23:55.540Z,99395
2017-11-29T05:26:25.432Z,99392
2017-11-29T05:28:55.327Z,99396
2017-11-29T05:31:25.259Z,99401
2017-11-29T05:33:55.392Z,99410
2017-11-29T05:36:25.300Z,99413
2017-11-29T05:38:55.196Z,99411
2017-11-29T05:41:25.302Z,99414
2017-11-29T05:43:55.230Z,99411
2017-11-29T05:46:25.146Z,99413
2017-11-29T05:48:55.066Z,99403
2017-11-29T05:51:25.004Z,99416
2017-11-29T05:53:54.920Z,99423
2017-11-29T05:56:24.915Z,99424
2017-11-29T05:58:54.899Z,99420
2017-11-29T06:01:24.839Z,99421
2017-11-29T06:03:54.753Z,99418
2017-11-29T06:06:24.661Z,99433
2017-11-29T06:08:54.579Z,99432
2017-11-29T06:11:24.476Z,99431
2017-11-29T06:13:54.411Z,99440
2017-11-29T06:16:24.320Z,99436
2017-11-29T06:18:54.280Z,99431
2017-11-29T06:21:24.211Z,99450
2017-11-29T06:23:54.156Z,99441
2017-11-29T06:26:24.048Z,99442
2017-11-29T06:28:54.036Z,99444
2017-11-29T06:31:23.974Z,99444
2017-11-29T06:33:53.921Z,99446
2017-11-29T06:36:23.834Z,99452
2017-11-29T06:38:53.766Z,99446
2017-11-29T06:41:23.668Z,99448
2017-11-29T06:43:53.592Z,99456
2017-11-29T06:46:23.622Z,99456
2017-11-29T06:48:53.526Z,99459
2017-11-29T06:51:23.465Z,99464
2017-11-29T06:53:53.356Z,99465
2017-11-29T06:56:23.311Z,99466
2017-11-29T06:58:53.225Z,99464
2017-11-29T07:01:23.317Z,99469
2017-11-29T07:03:53.228Z,99478
2017-11-29T07:06:23.178Z,99478
2017-11-29T07:08:53.093Z,99480
2017-11-29T07:11:23.035Z,99484
2017-11-29T07:13:52.960Z,99486
2017-11-29T07:16:22.863Z,99493
2017-11-29T07:18:52.778Z,99499
2017-11-29T07:21:22.775Z,99488
2017-11-29T07:23:52.719Z,99492
2017-11-29T07:26:22.633Z,99507
2017-11-29T07:28:52.563Z,99497
2017-11-29T07:31:22.459Z,99509
2017-11-29T07:33:52.379Z,99511
2017-11-29T07:36:22.275Z,99511
2017-11-29T07:38:52.251Z,99517
2017-11-29T07:41:22.148Z,99516
2017-11-29T07:43:52.094Z,99515
2017-11-29T07:46:21.986Z,99516
2017-11-29T07:48:51.915Z,99509
2017-11-29T07:51:21.819Z,99516
2017-11-29T07:53:51.791Z,99521
2017-11-29T07:56:21.709Z,99523
2017-11-29T07:58:51.641Z,99519
2017-11-29T08:01:21.561Z,99521
2017-11-29T08:03:51.478Z,99525
2017-11-29T08:06:21.578Z,99525
2017-11-29T08:08:51.483Z,99524
2017-11-29T08:11:21.449Z,99522
2017-11-29T08:13:51.333Z,99526
2017-11-29T08:16:21.310Z,99518
2017-11-29T08:18:51.218Z,99536
2017-11-29T08:21:21.166Z,99532
2017-11-29T08:23:51.106Z,99535
2017-11-29T08:26:21.085Z,99535
2017-11-29T08:28:51.012Z,99535
2017-11-29T08:31:20.947Z,99538
2017-11-29T08:33:50.914Z,99546
2017-11-29T08:36:20.863Z,99549
2017-11-29T08:38:50.784Z,99544
2017-11-29T08:41:20.701Z,99547
2017-11-29T08:43:50.652Z,99545
2017-11-29T08:46:20.554Z,99550
2017-11-29T08:48:50.500Z,99551
2017-11-29T08:51:20.400Z,99554
2017-11-29T08:53:50.326Z,99550
2017-11-29T08:56:20.203Z,99555
2017-11-29T08:58:50.150Z,99564
2017-11-29T09:01:20.079Z,99562
2017-11-29T09:03:49.980Z,99557
2017-11-29T09:06:19.972Z,99549
2017-11-29T09:08:49.882Z,99560
2017-11-29T09:11:20.609Z,99570
2017-11-29T09:13:50.597Z,99571
2017-11-29T09:16:20.544Z,99566
2017-11-29T09:18:50.620Z,99575
2017-11-29T09:21:20.544Z,99578
2017-11-29T09:23:50.934Z,99574
2017-11-29T09:26:21.294Z,99583
2017-11-29T09:28:51.245Z,99578
2017-11-29T09:31:21.136Z,99576
2017-11-29T09:33:51.942Z,99578
2017-11-29T09:36:21.968Z,99566
2017-11-29T09:38:52.918Z,99572
2017-11-29T09:41:22.841Z,99568
2017-11-29T09:43:52.756Z,99577
2017-11-29T09:46:22.661Z,99580
2017-11-29T09:48:52.601Z,99574
2017-11-29T09:51:22.526Z,99582
2017-11-29T09:53:52.447Z,99580
2017-11-29T09:56:22.495Z,99579
2017-11-29T09:58:52.429Z,99583
2017-11-29T10:01:23.024Z,99586
2017-11-29T10:03:52.913Z,99581
2017-11-29T10:06:23.030Z,99578
2017-11-29T10:08:52.928Z,99569
2017-11-29T10:11:22.838Z,99569
2017-11-29T10:13:52.784Z,99574
2017-11-29T10:16:22.719Z,99575
2017-11-29T10:18:52.723Z,99572
2017-11-29T10:21:22.636Z,99573
2017-11-29T10:23:52.550Z,99578
2017-11-29T10:26:22.432Z,99579
2017-11-29T10:28:52.383Z,99568
2017-11-29T10:31:22.365Z,99569
2017-11-29T10:33:52.290Z,99577
2017-11-29T10:36:22.394Z,99583
2017-11-29T10:38:52.404Z,99572
2017-11-29T10:41:22.288Z,99586
2017-11-29T10:43:52.195Z,99581
2017-11-29T10:46:22.085Z,99579
2017-11-29T10:48:52.024Z,99583
2017-11-29T10:51:21.941Z,99590
2017-11-29T10:53:51.913Z,99575
2017-11-29T10:56:21.873Z,99578
2017-11-29T10:58:51.858Z,99578
2017-11-29T11:01:21.767Z,99580
2017-11-29T11:03:51.713Z,99586
2017-11-29T11:06:22.347Z,99592
2017-11-29T11:08:52.574Z,99584
2017-11-29T11:11:22.502Z,99588
2017-11-29T11:13:52.438Z,99592
2017-11-29T11:16:23.298Z,99583
2017-11-29T11:18:54.171Z,99592
2017-11-29T11:21:24.092Z,99584
2017-11-29T11:23:54.038Z,99574
2017-11-29T11:26:24.156Z,99591
2017-11-29T11:28:54.139Z,99594
2017-11-29T11:31:24.064Z,99593
2017-11-29T11:33:53.992Z,99589
2017-11-29T11:36:23.946Z,99599
2017-11-29T11:38:53.875Z,99578
2017-11-29T11:41:23.794Z,99584
2017-11-29T11:43:53.714Z,99581
2017-11-29T11:46:23.684Z,99587
2017-11-29T11:48:53.570Z,99591
2017-11-29T11:51:23.446Z,99585
2017-11-29T11:53:53.395Z,99589
2017-11-29T11:56:23.260Z,99591
2017-11-29T11:58:53.148Z,99588
2017-11-29T12:01:23.081Z,99577
2017-11-29T12:03:53.027Z,99573
2017-11-29T12:06:22.923Z,99566
2017-11-29T12:08:52.856Z,99568
2017-11-29T12:11:22.812Z,99573
2017-11-29T12:13:52.731Z,99574
2017-11-29T12:16:22.648Z,99572
2017-11-29T12:18:52.595Z,99578
2017-11-29T12:21:22.594Z,99573
2017-11-29T12:23:52.501Z,99570
2017-11-29T12:26:22.419Z,99568
2017-11-29T12:28:52.310Z,99569
2017-11-29T12:31:22.264Z,99566
2017-11-29T12:33:52.176Z,99568
2017-11-29T12:36:22.100Z,99568
2017-11-29T12:38:51.986Z,99566
2017-11-29T12:41:21.924Z,99562
2017-11-29T12:43:51.893Z,99564
2017-11-29T12:46:21.957Z,99567
2017-11-29T12:49:03.539Z,99560
2017-11-29T12:51:33.460Z,99326
2017-11-29T12:54:03.351Z,99560
2017-11-29T12:56:33.385Z,99563
2017-11-29T12:59:03.335Z,99570
2017-11-29T13:01:33.319Z,99572
2017-11-29T13:04:03.216Z,99570
2017-11-29T13:06:33.181Z,99567
2017-11-29T13:09:03.246Z,99571
2017-11-29T13:11:33.183Z,99570
2017-11-29T13:14:03.226Z,99573
2017-11-29T13:16:33.192Z,99580
2017-11-29T13:19:03.087Z,99571
2017-11-29T13:21:33.012Z,99577
2017-11-29T13:24:17.778Z,99570
2017-11-29T13:29:34.261Z,99574
2017-11-29T13:32:05.640Z,99563
2017-11-29T13:34:35.692Z,99571
2017-11-29T13:43:01.566Z,99573
2017-11-29T13:45:31.584Z,99580
2017-11-29T13:48:01.570Z,99575
2017-11-29T13:50:31.504Z,99580
2017-11-29T13:53:02.490Z,99578
2017-11-29T13:55:32.505Z,99577
2017-11-29T13:58:02.926Z,99574
2017-11-29T14:00:32.872Z,99573
2017-11-29T14:11:57.585Z,99591
2017-11-29T14:14:27.643Z,99588
2017-11-29T14:16:57.587Z,99593
2017-11-29T14:19:27.601Z,99597
2017-11-29T14:22:00.581Z,99454
2017-11-29T14:24:30.800Z,99594
2017-11-29T14:27:00.854Z,99600
2017-11-29T14:29:30.984Z,99597
2017-11-29T14:32:00.952Z,99596
2017-11-29T14:34:30.933Z,99604
2017-11-29T14:37:00.876Z,99601
2017-11-29T14:39:30.832Z,99603
2017-11-29T14:42:01.418Z,99594
2017-11-29T14:44:31.698Z,99608
2017-11-29T15:00:12.662Z,99615
2017-11-29T15:05:27.253Z,99616
2017-11-29T15:17:45.212Z,99615
2017-11-29T15:20:41.421Z,99613
2017-11-29T15:51:19.348Z,99638
2017-11-29T15:53:49.408Z,99632
2017-11-29T15:56:19.416Z,99623
2017-11-29T15:58:49.570Z,99630
2017-11-29T16:01:19.544Z,99635
2017-11-29T16:20:21.189Z,99624
2017-11-29T16:22:51.231Z,99624
2017-11-29T16:25:21.181Z,99625
2017-11-29T16:27:51.210Z,99629
2017-11-29T16:30:21.166Z,99632
2017-11-29T16:32:51.171Z,99622
2017-11-29T16:35:21.104Z,99635
2017-11-29T16:37:51.153Z,99637
2017-11-29T16:40:21.260Z,99641
2017-11-29T16:42:51.343Z,99640
2017-11-29T16:45:21.394Z,99632
2017-11-29T16:47:51.359Z,99636
2017-11-29T16:50:21.291Z,99645
2017-11-29T16:55:26.188Z,99641
2017-11-29T16:57:59.910Z,99647
2017-11-29T17:00:30.159Z,99638
2017-11-29T17:03:00.201Z,99637
2017-11-29T17:05:30.136Z,99630
2017-11-29T17:08:00.094Z,99635
2017-11-29T17:10:30.149Z,99630
2017-11-29T17:13:00.128Z,99623
2017-11-29T17:15:30.226Z,99624
2017-11-29T17:18:00.142Z,99622
2017-11-29T17:20:30.036Z,99625
2017-11-29T17:22:59.973Z,99623
2017-11-29T17:25:29.910Z,99627
2017-11-29T17:27:59.868Z,99616
2017-11-29T17:30:30.041Z,99631
2017-11-29T17:32:59.961Z,99632
2017-11-29T17:35:29.928Z,99625
2017-11-29T17:38:00.039Z,99630
2017-11-29T17:40:31.018Z,99625
2017-11-29T17:45:55.825Z,99630
2017-11-29T17:48:26.292Z,99633
2017-11-29T17:50:56.226Z,99636
2017-11-29T17:53:26.193Z,99633
2017-11-29T17:55:56.163Z,99638
2017-11-29T17:58:26.077Z,99642
2017-11-29T18:00:56.002Z,99639
2017-11-29T18:03:25.971Z,99645
2017-11-29T18:05:55.919Z,99637
2017-11-29T18:08:25.857Z,99641
2017-11-29T18:11:01.420Z,99636
2017-11-29T18:13:34.055Z,99642
2017-11-29T18:16:05.241Z,99636
2017-11-29T18:18:35.246Z,99654
2017-11-29T18:24:12.537Z,99649
2017-11-29T18:26:42.612Z,99641
2017-11-29T18:29:12.530Z,99641
2017-11-29T18:31:43.488Z,99642
2017-11-29T18:34:13.437Z,99646
2017-11-29T18:36:43.416Z,99635
2017-11-29T18:39:13.343Z,99647
2017-11-29T18:41:43.267Z,99647
2017-11-29T18:44:13.251Z,99649
2017-11-29T18:49:48.600Z,99649
2017-11-29T18:52:19.520Z,99653
2017-11-29T18:55:03.667Z,99655
2017-11-29T18:57:36.244Z,99653
2017-11-29T19:00:12.580Z,99657
2017-11-29T19:06:06.998Z,99663
2017-11-29T19:11:23.207Z,99655
2017-11-29T19:13:59.232Z,99659
2017-11-29T19:16:39.387Z,99660
2017-11-29T19:28:51.130Z,99658
2017-11-29T19:31:21.988Z,99655
2017-11-29T19:46:49.390Z,99650
2017-11-29T20:02:15.458Z,99656
2017-11-29T20:04:45.469Z,99643
2017-11-29T20:07:15.708Z,99638
2017-11-29T20:09:45.938Z,99643
2017-11-29T20:15:06.204Z,99644
2017-11-29T20:17:36.530Z,99635
2017-11-29T20:20:06.793Z,99642
2017-11-29T20:23:10.904Z,99647
2017-11-29T20:44:25.182Z,99633
2017-11-29T20:59:49.269Z,99639
2017-11-29T21:02:23.020Z,99647
2017-11-29T21:04:54.719Z,99641
2017-11-29T21:07:26.524Z,99641
2017-11-29T21:09:57.163Z,99646
2017-11-29T21:12:30.458Z,99639
2017-11-29T21:27:52.678Z,99646
2017-11-29T21:30:23.441Z,99646
2017-11-29T21:32:56.287Z,99637
2017-11-29T22:31:35.585Z,99626
2017-11-29T22:34:06.422Z,99623
2017-11-29T22:36:37.320Z,99626
2017-11-29T22:39:07.404Z,99621
